createdAt,value
2023-10-08T00:00:44.513Z,59.40
2023-10-08T00:03:19.474Z,58.80
2023-10-08T00:05:52.905Z,58.80
2023-10-08T00:08:26.176Z,58.80
2023-10-08T00:11:07.238Z,58.70
2023-10-08T00:13:42.737Z,58.80
2023-10-08T00:16:18.410Z,58.70
2023-10-08T00:18:53.760Z,58.70
2023-10-08T00:21:28.849Z,58.80
2023-10-08T00:24:07.199Z,58.70
2023-10-08T00:26:42.638Z,58.70
2023-10-08T00:29:23.130Z,58.60
2023-10-08T00:31:58.181Z,58.60
2023-10-08T00:34:32.880Z,58.60
2023-10-08T00:37:10.178Z,58.50
2023-10-08T00:39:43.671Z,58.60
2023-10-08T00:42:16.796Z,58.50
2023-10-08T00:44:52.611Z,58.50
2023-10-08T00:47:28.893Z,58.40
2023-10-08T00:50:09.143Z,58.30
2023-10-08T00:52:44.051Z,58.40
2023-10-08T00:55:25.660Z,58.30
2023-10-08T00:58:00.150Z,58.40
2023-10-08T01:00:38.877Z,58.20
2023-10-08T01:03:17.770Z,58.20
2023-10-08T01:05:52.582Z,58.30
2023-10-08T01:08:37.823Z,58.30
2023-10-08T01:11:20.822Z,58.20
2023-10-08T01:13:56.112Z,58.20
2023-10-08T01:16:29.728Z,58.20
2023-10-08T01:19:03.733Z,58.30
2023-10-08T01:21:40.983Z,58.10
2023-10-08T01:24:18.672Z,58.30
2023-10-08T01:26:51.809Z,58.00
2023-10-08T01:29:26.257Z,58.10
2023-10-08T01:32:00.075Z,58.10
2023-10-08T01:34:37.191Z,58.00
2023-10-08T01:37:13.617Z,58.00
2023-10-08T01:39:48.851Z,58.00
2023-10-08T01:42:22.165Z,58.00
2023-10-08T01:44:56.381Z,58.00
2023-10-08T01:47:31.471Z,57.90
2023-10-08T01:50:22.446Z,58.00
2023-10-08T01:52:55.989Z,57.90
2023-10-08T01:55:34.849Z,58.00
2023-10-08T01:58:08.072Z,58.00
2023-10-08T02:00:44.569Z,57.90
2023-10-08T02:03:19.457Z,57.90
2023-10-08T02:05:54.977Z,57.90
2023-10-08T02:08:28.513Z,57.90
2023-10-08T02:11:03.725Z,58.00
2023-10-08T02:13:37.936Z,57.90
2023-10-08T02:16:11.657Z,58.00
2023-10-08T02:18:45.337Z,57.90
2023-10-08T02:21:19.119Z,57.80
2023-10-08T02:23:53.644Z,57.90
2023-10-08T02:26:28.254Z,57.90
2023-10-08T02:29:01.366Z,57.90
2023-10-08T02:31:34.478Z,57.80
2023-10-08T02:34:08.873Z,57.80
2023-10-08T02:36:44.044Z,57.90
2023-10-08T02:39:22.410Z,57.90
2023-10-08T02:42:00.351Z,57.80
2023-10-08T02:44:33.911Z,57.90
2023-10-08T02:47:09.334Z,57.80
2023-10-08T02:49:43.579Z,57.80
2023-10-08T02:52:17.089Z,57.80
2023-10-08T02:54:53.897Z,57.70
2023-10-08T02:57:30.751Z,58.20
2023-10-08T03:00:05.248Z,57.70
2023-10-08T03:02:40.938Z,57.70
2023-10-08T03:05:17.621Z,57.70
2023-10-08T03:07:52.426Z,57.60
2023-10-08T03:10:33.321Z,57.80
2023-10-08T03:13:11.101Z,57.60
2023-10-08T03:16:08.931Z,57.60
2023-10-08T03:18:44.523Z,57.70
2023-10-08T03:21:43.536Z,57.60
2023-10-08T03:24:31.096Z,57.60
2023-10-08T03:27:08.535Z,57.70
2023-10-08T03:29:43.688Z,57.60
2023-10-08T03:32:20.159Z,57.60
2023-10-08T03:34:55.700Z,57.70
2023-10-08T03:37:31.326Z,57.50
2023-10-08T03:40:25.442Z,57.60
2023-10-08T03:42:58.528Z,57.60
2023-10-08T03:45:52.812Z,57.70
2023-10-08T03:48:37.519Z,57.60
2023-10-08T03:51:13.103Z,57.60
2023-10-08T03:53:59.029Z,57.50
2023-10-08T03:56:33.023Z,57.60
2023-10-08T03:59:14.387Z,57.40
2023-10-08T04:01:55.527Z,57.40
2023-10-08T04:04:34.769Z,57.50
2023-10-08T04:07:21.797Z,57.40
2023-10-08T04:10:07.056Z,57.40
2023-10-08T04:12:45.554Z,57.40
2023-10-08T04:15:20.647Z,57.40
2023-10-08T04:17:55.573Z,57.50
2023-10-08T04:20:39.728Z,57.40
2023-10-08T04:23:19.807Z,57.40
2023-10-08T04:25:55.603Z,57.50
2023-10-08T04:28:35.657Z,57.40
2023-10-08T04:31:16.479Z,57.40
2023-10-08T04:33:52.097Z,57.40
2023-10-08T04:36:25.179Z,57.30
2023-10-08T04:39:04.334Z,57.40
2023-10-08T04:41:43.698Z,57.50
2023-10-08T04:44:17.706Z,57.30
2023-10-08T04:46:53.291Z,57.20
2023-10-08T04:49:30.761Z,57.30
2023-10-08T04:52:10.111Z,57.20
2023-10-08T04:54:52.434Z,57.20
2023-10-08T04:57:27.121Z,57.20
2023-10-08T05:00:02.063Z,57.20
2023-10-08T05:02:50.288Z,57.10
2023-10-08T05:05:25.544Z,57.30
2023-10-08T05:08:16.484Z,57.10
2023-10-08T05:11:07.033Z,57.20
2023-10-08T05:13:56.492Z,57.10
2023-10-08T05:16:38.155Z,57.00
2023-10-08T05:19:37.620Z,57.00
2023-10-08T05:22:31.000Z,57.00
2023-10-08T05:25:09.241Z,57.10
2023-10-08T05:28:10.224Z,57.10
2023-10-08T05:30:54.274Z,56.90
2023-10-08T05:33:29.554Z,56.90
2023-10-08T05:36:11.303Z,56.90
2023-10-08T05:39:01.717Z,57.00
2023-10-08T05:41:40.791Z,57.10
2023-10-08T05:44:25.243Z,56.90
2023-10-08T05:47:16.208Z,56.90
2023-10-08T05:50:16.442Z,56.80
2023-10-08T05:52:54.198Z,56.80
2023-10-08T05:55:35.498Z,56.80
2023-10-08T05:58:26.050Z,56.80
2023-10-08T06:01:10.138Z,56.80
2023-10-08T06:04:01.342Z,56.80
2023-10-08T06:06:48.801Z,56.90
2023-10-08T06:09:23.799Z,56.80
2023-10-08T06:12:09.292Z,56.90
2023-10-08T06:15:08.072Z,56.80
2023-10-08T06:18:05.440Z,56.70
2023-10-08T06:20:40.502Z,56.70
2023-10-08T06:23:15.154Z,57.00
2023-10-08T06:25:48.323Z,57.20
2023-10-08T06:28:22.893Z,57.80
2023-10-08T06:30:57.479Z,57.90
2023-10-08T06:33:34.579Z,57.80
2023-10-08T06:36:14.537Z,57.50
2023-10-08T06:38:50.769Z,57.70
2023-10-08T06:41:48.690Z,57.90
2023-10-08T06:44:27.461Z,58.00
2023-10-08T06:47:02.211Z,58.30
2023-10-08T06:49:36.137Z,58.50
2023-10-08T06:52:12.427Z,58.50
2023-10-08T06:54:45.555Z,58.50
2023-10-08T06:57:21.554Z,58.40
2023-10-08T06:59:56.099Z,58.40
2023-10-08T07:02:29.346Z,58.50
2023-10-08T07:05:10.428Z,58.40
2023-10-08T07:07:45.659Z,58.20
2023-10-08T07:10:20.968Z,58.20
2023-10-08T07:12:54.371Z,58.10
2023-10-08T07:15:31.152Z,58.00
2023-10-08T07:18:11.040Z,58.10
2023-10-08T07:20:47.018Z,58.10
2023-10-08T07:23:26.021Z,58.10
2023-10-08T07:26:11.833Z,58.00
2023-10-08T07:28:45.307Z,57.80
2023-10-08T07:31:21.956Z,57.90
2023-10-08T07:33:58.125Z,57.90
2023-10-08T07:36:32.341Z,57.80
2023-10-08T07:39:09.814Z,58.00
2023-10-08T07:41:43.074Z,58.00
2023-10-08T07:44:16.165Z,57.90
2023-10-08T07:46:50.867Z,57.70
2023-10-08T07:49:24.868Z,57.70
2023-10-08T07:51:59.678Z,57.50
2023-10-08T07:54:35.484Z,57.10
2023-10-08T07:57:12.832Z,57.00
2023-10-08T07:59:47.642Z,56.70
2023-10-08T08:02:24.708Z,56.70
2023-10-08T08:04:57.845Z,56.60
2023-10-08T08:07:31.032Z,56.40
2023-10-08T08:10:12.323Z,56.30
2023-10-08T08:12:46.610Z,56.30
2023-10-08T08:15:19.896Z,55.30
2023-10-08T08:17:54.387Z,53.90
2023-10-08T08:20:36.127Z,50.80
2023-10-08T08:23:09.508Z,49.60
2023-10-08T08:26:07.720Z,47.40
2023-10-08T08:28:41.754Z,45.40
2023-10-08T08:31:15.448Z,44.50
2023-10-08T08:33:57.780Z,43.20
2023-10-08T08:36:32.984Z,41.90
2023-10-08T08:39:09.604Z,41.00
2023-10-08T08:41:42.841Z,39.90
2023-10-08T08:44:16.086Z,40.20
2023-10-08T08:46:49.937Z,38.20
2023-10-08T08:49:24.436Z,37.90
2023-10-08T08:52:01.847Z,38.40
2023-10-08T08:54:34.977Z,37.10
2023-10-08T08:57:14.612Z,36.60
2023-10-08T08:59:52.286Z,36.70
2023-10-08T09:02:25.477Z,36.60
2023-10-08T09:05:00.586Z,35.90
2023-10-08T09:07:34.182Z,35.70
2023-10-08T09:10:13.403Z,35.20
2023-10-08T09:12:46.814Z,34.80
2023-10-08T09:15:19.911Z,34.60
2023-10-08T09:17:53.320Z,34.50
2023-10-08T09:20:29.081Z,34.10
2023-10-08T09:23:09.599Z,33.90
2023-10-08T09:25:42.912Z,33.60
2023-10-08T09:28:16.037Z,33.20
2023-10-08T09:30:50.085Z,33.40
2023-10-08T09:33:23.269Z,33.00
2023-10-08T09:35:58.600Z,33.30
2023-10-08T09:38:32.620Z,33.10
2023-10-08T09:41:08.102Z,34.10
2023-10-08T09:43:42.920Z,32.80
2023-10-08T09:46:18.115Z,33.00
2023-10-08T09:48:53.351Z,32.20
2023-10-08T09:51:30.646Z,32.00
2023-10-08T09:54:11.537Z,32.60
2023-10-08T09:56:46.082Z,33.10
2023-10-08T09:59:20.993Z,34.00
2023-10-08T10:01:55.709Z,35.50
2023-10-08T10:04:32.870Z,35.30
2023-10-08T10:07:14.253Z,34.90
2023-10-08T10:09:48.320Z,36.30
2023-10-08T10:12:26.671Z,36.50
2023-10-08T10:15:01.575Z,35.40
2023-10-08T10:17:45.019Z,36.30
2023-10-08T10:20:18.592Z,37.20
2023-10-08T10:22:53.214Z,36.90
2023-10-08T10:25:36.224Z,37.60
2023-10-08T10:28:24.668Z,36.90
2023-10-08T10:30:59.271Z,37.10
2023-10-08T10:33:33.370Z,37.20
2023-10-08T10:36:09.886Z,37.30
2023-10-08T10:38:44.836Z,37.30
2023-10-08T10:41:18.489Z,37.90
2023-10-08T10:43:54.205Z,37.30
2023-10-08T10:46:32.120Z,37.30
2023-10-08T10:49:08.786Z,37.60
2023-10-08T10:51:42.832Z,37.70
2023-10-08T10:54:22.004Z,37.60
2023-10-08T10:57:06.843Z,38.00
2023-10-08T10:59:42.872Z,37.70
2023-10-08T11:02:31.880Z,37.70
2023-10-08T11:05:09.944Z,38.10
2023-10-08T11:07:45.325Z,37.80
2023-10-08T11:10:25.314Z,38.00
2023-10-08T11:13:00.752Z,38.00
2023-10-08T11:15:41.365Z,38.00
2023-10-08T11:18:17.132Z,38.10
2023-10-08T11:20:55.339Z,38.60
2023-10-08T11:23:35.637Z,38.30
2023-10-08T11:26:10.462Z,38.60
2023-10-08T11:28:44.429Z,39.10
2023-10-08T11:31:20.998Z,38.90
2023-10-08T11:33:56.180Z,38.90
2023-10-08T11:36:30.825Z,39.20
2023-10-08T11:39:12.391Z,39.00
2023-10-08T11:41:56.887Z,39.20
2023-10-08T11:44:31.699Z,39.10
2023-10-08T11:47:13.468Z,39.30
2023-10-08T11:49:52.012Z,39.30
2023-10-08T11:52:26.004Z,39.30
2023-10-08T11:54:59.456Z,39.70
2023-10-08T11:57:36.647Z,39.60
2023-10-08T12:00:29.372Z,39.70
2023-10-08T12:03:06.834Z,39.70
2023-10-08T12:05:48.506Z,39.50
2023-10-08T12:08:23.697Z,39.60
2023-10-08T12:10:57.536Z,39.70
2023-10-08T12:13:32.260Z,39.80
2023-10-08T12:16:08.153Z,39.70
2023-10-08T12:18:42.826Z,39.70
2023-10-08T12:21:16.964Z,39.70
2023-10-08T12:23:52.591Z,40.10
2023-10-08T12:26:26.721Z,39.70
2023-10-08T12:29:01.664Z,39.80
2023-10-08T12:31:35.273Z,39.90
2023-10-08T12:34:12.959Z,40.00
2023-10-08T12:36:47.245Z,40.00
2023-10-08T12:39:26.471Z,40.50
2023-10-08T12:42:06.270Z,40.20
2023-10-08T12:44:40.895Z,40.30
2023-10-08T12:47:14.363Z,40.20
2023-10-08T12:49:48.411Z,40.30
2023-10-08T12:52:21.944Z,40.50
2023-10-08T12:54:57.080Z,40.90
2023-10-08T12:57:34.104Z,41.60
2023-10-08T13:00:10.175Z,41.80
2023-10-08T13:02:44.419Z,41.70
2023-10-08T13:05:22.352Z,41.30
2023-10-08T13:07:56.505Z,42.20
2023-10-08T13:10:30.351Z,42.60
2023-10-08T13:13:04.272Z,42.70
2023-10-08T13:15:39.217Z,43.00
2023-10-08T13:18:12.746Z,43.00
2023-10-08T13:20:46.240Z,43.00
2023-10-08T13:23:20.018Z,43.00
2023-10-08T13:25:55.287Z,43.20
2023-10-08T13:28:28.996Z,43.50
2023-10-08T13:31:11.150Z,43.50
2023-10-08T13:33:45.699Z,43.20
2023-10-08T13:36:19.863Z,43.80
2023-10-08T13:38:53.644Z,43.60
2023-10-08T13:41:30.557Z,43.90
2023-10-08T13:44:06.747Z,44.10
2023-10-08T13:46:45.924Z,44.10
2023-10-08T13:49:19.779Z,44.20
2023-10-08T13:51:57.557Z,44.10
2023-10-08T13:54:31.744Z,43.90
2023-10-08T13:57:05.446Z,44.30
2023-10-08T13:59:39.388Z,44.20
2023-10-08T14:02:16.497Z,44.40
2023-10-08T14:04:51.809Z,44.40
2023-10-08T14:07:26.190Z,44.50
2023-10-08T14:10:02.130Z,44.40
2023-10-08T14:12:36.403Z,44.30
2023-10-08T14:15:15.806Z,44.50
2023-10-08T14:17:54.736Z,44.30
2023-10-08T14:20:32.984Z,44.30
2023-10-08T14:23:06.814Z,44.00
2023-10-08T14:25:45.998Z,44.30
2023-10-08T14:28:24.072Z,44.10
2023-10-08T14:30:58.812Z,44.20
2023-10-08T14:33:42.868Z,44.30
2023-10-08T14:36:36.337Z,44.50
2023-10-08T14:39:27.730Z,44.30
2023-10-08T14:42:18.412Z,44.30
2023-10-08T14:44:52.042Z,44.40
2023-10-08T14:47:25.242Z,44.60
2023-10-08T14:50:01.571Z,44.60
2023-10-08T14:52:35.350Z,44.60
2023-10-08T14:55:08.837Z,44.60
2023-10-08T14:57:43.084Z,44.70
2023-10-08T15:00:16.307Z,44.60
2023-10-08T15:02:49.471Z,44.70
2023-10-08T15:05:24.751Z,44.60
2023-10-08T15:07:58.191Z,44.50
2023-10-08T15:10:31.746Z,44.00
2023-10-08T15:13:04.897Z,44.60
2023-10-08T15:15:41.255Z,45.00
2023-10-08T15:18:15.706Z,44.70
2023-10-08T15:20:50.601Z,44.50
2023-10-08T15:23:26.813Z,44.30
2023-10-08T15:25:59.912Z,44.70
2023-10-08T15:28:34.013Z,44.60
2023-10-08T15:31:08.022Z,44.60
2023-10-08T15:33:41.319Z,44.80
2023-10-08T15:36:16.251Z,44.60
2023-10-08T15:38:49.907Z,44.90
2023-10-08T15:41:25.135Z,44.60
2023-10-08T15:43:59.676Z,44.80
2023-10-08T15:46:35.411Z,44.70
2023-10-08T15:49:11.198Z,44.60
2023-10-08T15:51:46.867Z,44.40
2023-10-08T15:54:22.198Z,44.30
2023-10-08T15:56:55.420Z,44.70
2023-10-08T15:59:28.863Z,44.30
2023-10-08T16:02:01.979Z,44.80
2023-10-08T16:04:35.225Z,44.60
2023-10-08T16:07:12.404Z,45.00
2023-10-08T16:09:46.016Z,44.80
2023-10-08T16:12:19.903Z,44.60
2023-10-08T16:14:53.010Z,44.30
2023-10-08T16:17:32.116Z,44.10
2023-10-08T16:20:14.629Z,44.20
2023-10-08T16:22:52.006Z,44.40
2023-10-08T16:25:25.605Z,44.40
2023-10-08T16:27:59.674Z,44.30
2023-10-08T16:30:34.965Z,44.30
2023-10-08T16:33:08.363Z,44.30
2023-10-08T16:35:41.575Z,45.00
2023-10-08T16:38:16.075Z,44.40
2023-10-08T16:40:49.530Z,44.50
2023-10-08T16:43:22.698Z,44.30
2023-10-08T16:45:55.926Z,44.80
2023-10-08T16:48:29.540Z,44.80
2023-10-08T16:51:03.587Z,44.90
2023-10-08T16:53:38.114Z,45.10
2023-10-08T16:56:12.163Z,45.20
2023-10-08T16:58:46.082Z,45.30
2023-10-08T17:01:19.154Z,45.30
2023-10-08T17:03:53.603Z,44.80
2023-10-08T17:06:27.007Z,44.80
2023-10-08T17:09:01.656Z,44.60
2023-10-08T17:11:36.307Z,45.40
2023-10-08T17:14:09.765Z,45.40
2023-10-08T17:16:43.054Z,45.60
2023-10-08T17:19:18.689Z,45.60
2023-10-08T17:21:52.306Z,45.50
2023-10-08T17:24:29.303Z,45.70
2023-10-08T17:27:14.452Z,45.60
2023-10-08T17:29:48.091Z,45.30
2023-10-08T17:32:23.010Z,45.30
2023-10-08T17:34:56.207Z,45.40
2023-10-08T17:37:29.466Z,45.30
2023-10-08T17:40:05.018Z,45.70
2023-10-08T17:42:38.220Z,45.70
2023-10-08T17:45:15.152Z,46.00
2023-10-08T17:47:49.037Z,46.00
2023-10-08T17:50:22.307Z,46.40
2023-10-08T17:52:55.617Z,46.50
2023-10-08T17:55:30.028Z,46.60
2023-10-08T17:58:04.305Z,46.60
2023-10-08T18:00:42.231Z,46.70
2023-10-08T18:03:16.718Z,46.70
2023-10-08T18:05:54.944Z,46.70
2023-10-08T18:08:28.239Z,46.70
2023-10-08T18:11:14.692Z,46.70
2023-10-08T18:13:48.110Z,46.70
2023-10-08T18:16:22.794Z,46.90
2023-10-08T18:18:57.110Z,46.90
2023-10-08T18:21:31.285Z,47.00
2023-10-08T18:24:05.058Z,47.00
2023-10-08T18:26:42.860Z,47.00
2023-10-08T18:29:17.229Z,47.10
2023-10-08T18:31:50.742Z,47.20
2023-10-08T18:34:25.054Z,47.20
2023-10-08T18:37:01.567Z,47.20
2023-10-08T18:39:36.476Z,47.20
2023-10-08T18:42:10.890Z,47.30
2023-10-08T18:44:44.244Z,47.40
2023-10-08T18:47:19.098Z,47.40
2023-10-08T18:50:04.448Z,47.40
2023-10-08T18:52:46.271Z,47.40
2023-10-08T18:55:21.957Z,47.50
2023-10-08T18:57:56.469Z,47.50
2023-10-08T19:00:30.479Z,47.50
2023-10-08T19:03:05.839Z,47.50
2023-10-08T19:05:39.084Z,47.50
2023-10-08T19:08:12.617Z,47.50
2023-10-08T19:10:46.401Z,47.50
2023-10-08T19:13:20.826Z,47.50
2023-10-08T19:15:54.002Z,47.50
2023-10-08T19:18:28.431Z,47.50
2023-10-08T19:21:01.805Z,47.50
2023-10-08T19:23:37.375Z,47.50
2023-10-08T19:26:12.034Z,47.60
2023-10-08T19:28:47.648Z,47.50
2023-10-08T19:31:20.767Z,47.50
2023-10-08T19:33:54.362Z,47.60
2023-10-08T19:36:27.620Z,47.60
2023-10-08T19:39:01.782Z,47.60
2023-10-08T19:41:35.008Z,47.60
2023-10-08T19:44:11.470Z,47.60
2023-10-08T19:46:44.588Z,47.60
2023-10-08T19:49:18.814Z,47.60
2023-10-08T19:51:52.528Z,47.60
2023-10-08T19:54:25.977Z,47.60
2023-10-08T19:57:00.675Z,47.60
2023-10-08T19:59:35.180Z,47.60
2023-10-08T20:02:08.252Z,47.60
2023-10-08T20:04:41.491Z,47.60
2023-10-08T20:07:15.115Z,47.60
2023-10-08T20:09:49.062Z,47.60
2023-10-08T20:12:23.280Z,47.60
2023-10-08T20:14:58.539Z,47.70
2023-10-08T20:17:31.757Z,47.70
2023-10-08T20:20:13.123Z,47.70
2023-10-08T20:22:48.044Z,47.70
2023-10-08T20:25:22.109Z,47.70
2023-10-08T20:27:55.275Z,47.70
2023-10-08T20:30:29.873Z,47.70
2023-10-08T20:33:03.098Z,47.70
2023-10-08T20:35:37.061Z,47.70
2023-10-08T20:38:10.346Z,47.70
2023-10-08T20:40:44.812Z,47.70
2023-10-08T20:43:17.927Z,47.70
2023-10-08T20:45:52.600Z,47.70
2023-10-08T20:48:26.559Z,47.70
2023-10-08T20:51:00.938Z,47.70
2023-10-08T20:53:35.608Z,47.70
2023-10-08T20:56:08.787Z,47.70
2023-10-08T20:58:43.480Z,47.70
2023-10-08T21:01:19.195Z,47.80
2023-10-08T21:03:52.676Z,47.80
2023-10-08T21:06:25.866Z,47.80
2023-10-08T21:08:59.036Z,47.70
2023-10-08T21:11:32.224Z,47.80
2023-10-08T21:14:05.332Z,47.70
2023-10-08T21:16:40.929Z,47.70
2023-10-08T21:19:14.196Z,47.70
2023-10-08T21:21:47.358Z,47.70
2023-10-08T21:24:20.888Z,47.70
2023-10-08T21:26:56.067Z,47.80
2023-10-08T21:29:29.528Z,47.70
2023-10-08T21:32:04.009Z,47.80
2023-10-08T21:34:37.139Z,47.80
2023-10-08T21:37:11.168Z,47.80
2023-10-08T21:39:44.557Z,47.80
2023-10-08T21:42:17.750Z,47.80
2023-10-08T21:44:51.655Z,47.80
2023-10-08T21:47:26.119Z,47.80
2023-10-08T21:49:59.153Z,47.80
2023-10-08T21:52:32.185Z,47.80
2023-10-08T21:55:06.981Z,47.80
2023-10-08T21:57:40.918Z,47.80
2023-10-08T22:00:32.724Z,47.80
2023-10-08T22:03:10.886Z,47.80
2023-10-08T22:05:45.479Z,47.80
2023-10-08T22:08:22.773Z,47.80
2023-10-08T22:10:57.146Z,47.80
2023-10-08T22:13:31.576Z,47.80
2023-10-08T22:16:15.128Z,47.80
2023-10-08T22:18:57.970Z,47.80
2023-10-08T22:21:36.028Z,47.80
2023-10-08T22:24:12.219Z,47.80
2023-10-08T22:26:46.424Z,47.80
2023-10-08T22:29:19.610Z,47.80
2023-10-08T22:31:52.767Z,47.80
2023-10-08T22:34:29.836Z,47.80
2023-10-08T22:37:08.698Z,47.80
2023-10-08T22:39:43.331Z,47.80
2023-10-08T22:42:17.301Z,47.80
2023-10-08T22:44:56.120Z,47.80
2023-10-08T22:47:33.324Z,47.80
2023-10-08T22:50:18.978Z,47.80
2023-10-08T22:52:52.707Z,47.80
2023-10-08T22:55:27.682Z,47.80
2023-10-08T22:58:02.336Z,47.80
2023-10-08T23:00:36.230Z,47.80
2023-10-08T23:03:12.632Z,47.80
2023-10-08T23:05:47.691Z,47.70
2023-10-08T23:08:21.775Z,47.70
2023-10-08T23:10:55.315Z,47.70
2023-10-08T23:13:28.643Z,47.70
2023-10-08T23:16:05.882Z,47.70
2023-10-08T23:18:41.448Z,47.70
2023-10-08T23:21:17.271Z,47.70
2023-10-08T23:23:51.206Z,47.80
2023-10-08T23:26:25.232Z,47.80
2023-10-08T23:28:58.384Z,47.80
2023-10-08T23:31:31.553Z,47.80
2023-10-08T23:34:06.833Z,47.70
2023-10-08T23:36:41.944Z,47.70
2023-10-08T23:39:27.103Z,47.70
2023-10-08T23:42:21.381Z,47.70
2023-10-08T23:44:58.299Z,47.70
2023-10-08T23:47:31.643Z,47.70
2023-10-08T23:50:11.813Z,47.70
2023-10-08T23:52:48.924Z,47.70
2023-10-08T23:55:26.161Z,47.70
2023-10-08T23:58:07.933Z,47.70
